sensor_id;sensor_type;location;lat;lon;timestamp;pressure;altitude;pressure_sealevel;temperature;humidity
57376;BME280;44805;45.048;5.062;2022-11-24T00:01:16;99621.13;;;4.38;100.00
57376;BME280;44805;45.048;5.062;2022-11-24T00:03:50;99718.13;;;4.78;100.00
57376;BME280;44805;45.048;5.062;2022-11-24T00:06:22;99656.66;;;4.39;100.00
57376;BME280;44805;45.048;5.062;2022-11-24T00:08:48;99677.09;;;4.45;100.00
57376;BME280;44805;45.048;5.062;2022-11-24T00:11:21;99578.06;;;3.97;100.00
57376;BME280;44805;45.048;5.062;2022-11-24T00:13:47;99586.00;;;3.83;100.00
57376;BME280;44805;45.048;5.062;2022-11-24T00:16:17;99686.72;;;4.32;100.00
57376;BME280;44805;45.048;5.062;2022-11-24T00:18:47;99692.06;;;4.30;100.00
57376;BME280;44805;45.048;5.062;2022-11-24T00:21:14;99684.59;;;4.37;100.00
57376;BME280;44805;45.048;5.062;2022-11-24T00:23:40;99718.81;;;4.45;100.00
57376;BME280;44805;45.048;5.062;2022-11-24T00:26:23;99725.91;;;4.43;100.00
57376;BME280;44805;45.048;5.062;2022-11-24T00:28:51;99663.34;;;4.06;100.00
57376;BME280;44805;45.048;5.062;2022-11-24T00:31:52;99638.59;;;3.88;100.00
57376;BME280;44805;45.048;5.062;2022-11-24T00:34:13;99670.13;;;4.09;100.00
57376;BME280;44805;45.048;5.062;2022-11-24T00:36:40;99574.41;;;3.63;100.00
57376;BME280;44805;45.048;5.062;2022-11-24T00:39:10;99584.28;;;3.70;100.00
57376;BME280;44805;45.048;5.062;2022-11-24T00:41:36;99653.88;;;4.05;100.00
57376;BME280;44805;45.048;5.062;2022-11-24T00:44:08;99554.75;;;3.46;100.00
57376;BME280;44805;45.048;5.062;2022-11-24T00:46:34;99655.53;;;4.06;100.00
57376;BME280;44805;45.048;5.062;2022-11-24T00:49:00;99623.06;;;3.86;100.00
57376;BME280;44805;45.048;5.062;2022-11-24T00:54:47;99682.09;;;4.11;100.00
57376;BME280;44805;45.048;5.062;2022-11-24T00:57:13;99564.28;;;3.21;100.00
57376;BME280;44805;45.048;5.062;2022-11-24T00:59:40;99627.28;;;3.63;100.00
57376;BME280;44805;45.048;5.062;2022-11-24T01:02:06;99727.59;;;4.31;100.00
57376;BME280;44805;45.048;5.062;2022-11-24T01:04:31;99576.84;;;3.40;100.00
57376;BME280;44805;45.048;5.062;2022-11-24T01:10:19;99631.06;;;3.59;100.00
57376;BME280;44805;45.048;5.062;2022-11-24T01:12:44;99647.94;;;3.66;100.00
57376;BME280;44805;45.048;5.062;2022-11-24T01:15:12;99736.56;;;4.27;100.00
57376;BME280;44805;45.048;5.062;2022-11-24T01:17:37;99669.34;;;3.83;100.00
57376;BME280;44805;45.048;5.062;2022-11-24T01:20:08;99731.59;;;4.11;100.00
57376;BME280;44805;45.048;5.062;2022-11-24T01:22:34;99655.34;;;3.34;100.00
57376;BME280;44805;45.048;5.062;2022-11-24T01:24:59;99629.84;;;3.01;100.00
57376;BME280;44805;45.048;5.062;2022-11-24T01:27:25;99609.03;;;3.01;100.00
57376;BME280;44805;45.048;5.062;2022-11-24T01:29:50;99764.75;;;3.84;100.00
57376;BME280;44805;45.048;5.062;2022-11-24T01:32:16;99754.34;;;3.84;100.00
57376;BME280;44805;45.048;5.062;2022-11-24T01:34:42;99765.78;;;3.94;100.00
57376;BME280;44805;45.048;5.062;2022-11-24T01:40:29;99715.28;;;3.58;100.00
57376;BME280;44805;45.048;5.062;2022-11-24T01:42:54;99760.41;;;3.84;100.00
57376;BME280;44805;45.048;5.062;2022-11-24T01:45:34;99755.00;;;3.75;100.00
57376;BME280;44805;45.048;5.062;2022-11-24T01:48:03;99778.31;;;3.89;100.00
57376;BME280;44805;45.048;5.062;2022-11-24T01:50:30;99701.53;;;3.31;100.00
57376;BME280;44805;45.048;5.062;2022-11-24T01:52:56;99657.72;;;3.12;100.00
57376;BME280;44805;45.048;5.062;2022-11-24T01:55:29;99729.78;;;3.75;100.00
57376;BME280;44805;45.048;5.062;2022-11-24T01:58:17;99716.03;;;3.60;100.00
57376;BME280;44805;45.048;5.062;2022-11-24T02:00:44;99679.19;;;3.54;100.00
57376;BME280;44805;45.048;5.062;2022-11-24T02:03:15;99653.34;;;3.38;100.00
57376;BME280;44805;45.048;5.062;2022-11-24T02:08:21;99701.22;;;3.74;100.00
57376;BME280;44805;45.048;5.062;2022-11-24T02:10:50;99721.63;;;3.92;100.00
57376;BME280;44805;45.048;5.062;2022-11-24T02:13:18;99719.28;;;3.77;100.00
57376;BME280;44805;45.048;5.062;2022-11-24T02:15:43;99733.22;;;3.76;100.00
57376;BME280;44805;45.048;5.062;2022-11-24T02:18:09;99784.88;;;4.07;100.00
57376;BME280;44805;45.048;5.062;2022-11-24T02:27:11;99775.28;;;3.95;100.00
57376;BME280;44805;45.048;5.062;2022-11-24T02:29:40;99772.69;;;3.95;100.00
57376;BME280;44805;45.048;5.062;2022-11-24T02:32:08;99751.44;;;3.76;100.00
57376;BME280;44805;45.048;5.062;2022-11-24T02:34:35;99740.50;;;3.83;100.00
57376;BME280;44805;45.048;5.062;2022-11-24T02:40:22;99737.88;;;3.83;100.00
57376;BME280;44805;45.048;5.062;2022-11-24T02:42:53;99784.53;;;4.12;100.00
57376;BME280;44805;45.048;5.062;2022-11-24T02:45:19;99838.81;;;4.44;100.00
57376;BME280;44805;45.048;5.062;2022-11-24T02:47:45;99733.00;;;3.66;100.00
57376;BME280;44805;45.048;5.062;2022-11-24T02:50:11;99808.41;;;4.06;100.00
57376;BME280;44805;45.048;5.062;2022-11-24T02:55:45;99747.69;;;3.80;100.00
57376;BME280;44805;45.048;5.062;2022-11-24T02:58:11;99829.78;;;4.24;100.00
57376;BME280;44805;45.048;5.062;2022-11-24T03:00:36;99732.81;;;3.56;100.00
57376;BME280;44805;45.048;5.062;2022-11-24T03:03:02;99792.50;;;3.85;100.00
57376;BME280;44805;45.048;5.062;2022-11-24T03:12:12;99793.09;;;3.63;100.00
57376;BME280;44805;45.048;5.062;2022-11-24T03:14:39;99809.88;;;3.72;100.00
57376;BME280;44805;45.048;5.062;2022-11-24T03:17:05;99811.56;;;3.85;100.00
57376;BME280;44805;45.048;5.062;2022-11-24T03:19:31;99762.38;;;3.55;100.00
57376;BME280;44805;45.048;5.062;2022-11-24T03:25:19;99832.91;;;3.78;100.00
57376;BME280;44805;45.048;5.062;2022-11-24T03:27:45;99774.78;;;3.52;100.00
57376;BME280;44805;45.048;5.062;2022-11-24T03:30:11;99791.03;;;3.81;100.00
57376;BME280;44805;45.048;5.062;2022-11-24T03:32:37;99741.03;;;3.50;100.00
57376;BME280;44805;45.048;5.062;2022-11-24T03:35:03;99769.56;;;3.64;100.00
57376;BME280;44805;45.048;5.062;2022-11-24T03:37:30;99840.63;;;3.92;100.00
57376;BME280;44805;45.048;5.062;2022-11-24T03:39:56;99745.59;;;3.34;100.00
57376;BME280;44805;45.048;5.062;2022-11-24T03:42:24;99687.06;;;3.01;100.00
57376;BME280;44805;45.048;5.062;2022-11-24T03:44:49;99788.41;;;3.55;100.00
57376;BME280;44805;45.048;5.062;2022-11-24T03:47:16;99695.81;;;3.13;100.00
57376;BME280;44805;45.048;5.062;2022-11-24T03:49:47;99741.22;;;3.47;100.00
57376;BME280;44805;45.048;5.062;2022-11-24T03:52:22;99783.13;;;3.82;100.00
57376;BME280;44805;45.048;5.062;2022-11-24T03:54:51;99832.59;;;4.08;100.00
57376;BME280;44805;45.048;5.062;2022-11-24T03:57:19;99668.13;;;3.24;100.00
57376;BME280;44805;45.048;5.062;2022-11-24T03:59:45;99676.91;;;3.36;100.00
57376;BME280;44805;45.048;5.062;2022-11-24T04:02:10;99803.63;;;4.12;100.00
57376;BME280;44805;45.048;5.062;2022-11-24T04:04:36;99832.81;;;4.18;100.00
57376;BME280;44805;45.048;5.062;2022-11-24T04:07:17;99835.19;;;4.21;100.00
57376;BME280;44805;45.048;5.062;2022-11-24T04:09:43;99793.75;;;3.92;100.00
57376;BME280;44805;45.048;5.062;2022-11-24T04:12:09;99792.59;;;3.83;100.00
57376;BME280;44805;45.048;5.062;2022-11-24T04:14:58;99807.28;;;3.97;100.00
57376;BME280;44805;45.048;5.062;2022-11-24T04:17:23;99805.81;;;3.93;100.00
57376;BME280;44805;45.048;5.062;2022-11-24T04:19:49;99852.09;;;4.28;100.00
57376;BME280;44805;45.048;5.062;2022-11-24T04:22:27;99841.25;;;4.21;100.00
57376;BME280;44805;45.048;5.062;2022-11-24T04:24:52;99797.50;;;3.88;100.00
57376;BME280;44805;45.048;5.062;2022-11-24T04:27:18;99844.16;;;4.17;100.00
57376;BME280;44805;45.048;5.062;2022-11-24T04:29:43;99849.28;;;4.18;100.00
57376;BME280;44805;45.048;5.062;2022-11-24T04:32:15;99675.19;;;3.10;100.00
57376;BME280;44805;45.048;5.062;2022-11-24T04:34:40;99787.69;;;3.79;100.00
57376;BME280;44805;45.048;5.062;2022-11-24T05:26:51;99778.34;;;2.83;100.00
57376;BME280;44805;45.048;5.062;2022-11-24T05:29:22;99778.44;;;3.09;100.00
57376;BME280;44805;45.048;5.062;2022-11-24T05:31:47;99851.56;;;3.32;100.00
57376;BME280;44805;45.048;5.062;2022-11-24T05:34:13;99775.34;;;2.63;100.00
57376;BME280;44805;45.048;5.062;2022-11-24T05:36:39;99802.31;;;2.74;100.00
57376;BME280;44805;45.048;5.062;2022-11-24T05:39:18;99696.53;;;1.93;100.00
57376;BME280;44805;45.048;5.062;2022-11-24T05:41:44;99716.44;;;2.07;100.00
57376;BME280;44805;45.048;5.062;2022-11-24T05:44:09;99688.38;;;1.71;100.00
57376;BME280;44805;45.048;5.062;2022-11-24T05:46:37;99694.88;;;1.78;100.00
57376;BME280;44805;45.048;5.062;2022-11-24T05:49:09;99707.81;;;1.92;100.00
57376;BME280;44805;45.048;5.062;2022-11-24T05:51:34;99717.47;;;2.05;100.00
57376;BME280;44805;45.048;5.062;2022-11-24T05:54:34;99868.94;;;3.04;100.00
57376;BME280;44805;45.048;5.062;2022-11-24T05:57:00;99713.94;;;2.06;100.00
57376;BME280;44805;45.048;5.062;2022-11-24T05:59:28;99766.41;;;2.39;100.00
57376;BME280;44805;45.048;5.062;2022-11-24T06:01:53;99750.72;;;2.68;100.00
57376;BME280;44805;45.048;5.062;2022-11-24T06:04:19;99711.22;;;2.49;100.00
57376;BME280;44805;45.048;5.062;2022-11-24T06:06:45;99784.13;;;3.01;100.00
57376;BME280;44805;45.048;5.062;2022-11-24T06:09:17;99699.28;;;2.46;100.00
57376;BME280;44805;45.048;5.062;2022-11-24T06:11:42;99691.69;;;2.43;100.00
57376;BME280;44805;45.048;5.062;2022-11-24T06:14:08;99693.38;;;2.57;100.00
57376;BME280;44805;45.048;5.062;2022-11-24T06:16:34;99703.41;;;2.63;100.00
57376;BME280;44805;45.048;5.062;2022-11-24T06:19:00;99810.44;;;3.37;100.00
57376;BME280;44805;45.048;5.062;2022-11-24T06:21:26;99767.00;;;3.12;100.00
57376;BME280;44805;45.048;5.062;2022-11-24T06:24:29;99877.91;;;3.80;100.00
57376;BME280;44805;45.048;5.062;2022-11-24T06:26:54;99723.69;;;2.98;100.00
57376;BME280;44805;45.048;5.062;2022-11-24T06:29:23;99804.50;;;3.35;100.00
57376;BME280;44805;45.048;5.062;2022-11-24T06:31:48;99724.59;;;2.97;100.00
57376;BME280;44805;45.048;5.062;2022-11-24T06:34:14;99748.06;;;3.22;100.00
57376;BME280;44805;45.048;5.062;2022-11-24T06:36:40;99736.91;;;3.20;100.00
57376;BME280;44805;45.048;5.062;2022-11-24T06:39:33;99882.50;;;4.14;100.00
57376;BME280;44805;45.048;5.062;2022-11-24T06:42:07;99830.41;;;3.89;100.00
57376;BME280;44805;45.048;5.062;2022-11-24T06:45:03;99768.53;;;3.54;100.00
57376;BME280;44805;45.048;5.062;2022-11-24T06:47:44;99823.44;;;4.02;100.00
57376;BME280;44805;45.048;5.062;2022-11-24T06:50:15;99747.69;;;3.54;100.00
57376;BME280;44805;45.048;5.062;2022-11-24T06:56:27;99820.63;;;3.80;100.00
57376;BME280;44805;45.048;5.062;2022-11-24T07:18:17;99793.94;;;3.76;100.00
57376;BME280;44805;45.048;5.062;2022-11-24T07:20:48;99769.97;;;3.58;100.00
57376;BME280;44805;45.048;5.062;2022-11-24T07:23:19;99840.94;;;4.13;100.00
57376;BME280;44805;45.048;5.062;2022-11-24T07:25:55;99835.28;;;4.19;100.00
57376;BME280;44805;45.048;5.062;2022-11-24T07:28:45;99793.75;;;4.05;100.00
57376;BME280;44805;45.048;5.062;2022-11-24T07:31:16;99829.78;;;4.24;100.00
57376;BME280;44805;45.048;5.062;2022-11-24T07:33:56;99934.16;;;4.97;100.00
57376;BME280;44805;45.048;5.062;2022-11-24T07:36:24;99804.34;;;4.14;100.00
57376;BME280;44805;45.048;5.062;2022-11-24T07:39:05;99938.16;;;4.90;100.00
57376;BME280;44805;45.048;5.062;2022-11-24T07:41:58;99805.09;;;3.91;100.00
57376;BME280;44805;45.048;5.062;2022-11-24T07:44:34;99826.22;;;3.99;100.00
57376;BME280;44805;45.048;5.062;2022-11-24T07:47:00;99893.16;;;4.37;100.00
57376;BME280;44805;45.048;5.062;2022-11-24T07:49:28;99875.22;;;4.20;100.00
57376;BME280;44805;45.048;5.062;2022-11-24T07:51:55;99880.84;;;4.13;100.00
57376;BME280;44805;45.048;5.062;2022-11-24T07:54:24;99906.50;;;4.45;100.00
57376;BME280;44805;45.048;5.062;2022-11-24T07:56:50;99897.44;;;4.38;100.00
57376;BME280;44805;45.048;5.062;2022-11-24T07:59:18;99928.41;;;4.55;100.00
57376;BME280;44805;45.048;5.062;2022-11-24T08:01:43;99917.97;;;4.55;100.00
57376;BME280;44805;45.048;5.062;2022-11-24T08:04:09;99903.53;;;4.63;100.00
57376;BME280;44805;45.048;5.062;2022-11-24T08:06:37;99935.69;;;4.76;100.00
57376;BME280;44805;45.048;5.062;2022-11-24T08:12:53;99891.38;;;4.25;100.00
57376;BME280;44805;45.048;5.062;2022-11-24T08:15:21;99963.00;;;4.83;100.00
57376;BME280;44805;45.048;5.062;2022-11-24T08:17:50;99952.91;;;4.66;100.00
57376;BME280;44805;45.048;5.062;2022-11-24T08:20:16;99934.84;;;4.37;100.00
57376;BME280;44805;45.048;5.062;2022-11-24T08:22:42;99943.19;;;4.42;100.00
57376;BME280;44805;45.048;5.062;2022-11-24T08:29:00;99996.97;;;5.20;100.00
57376;BME280;44805;45.048;5.062;2022-11-24T08:31:37;99851.03;;;4.43;100.00
57376;BME280;44805;45.048;5.062;2022-11-24T08:34:03;99873.94;;;4.64;100.00
57376;BME280;44805;45.048;5.062;2022-11-24T08:36:30;99869.56;;;4.64;100.00
57376;BME280;44805;45.048;5.062;2022-11-24T08:38:57;99880.78;;;4.77;100.00
57376;BME280;44805;45.048;5.062;2022-11-24T08:41:23;99888.88;;;4.49;100.00
57376;BME280;44805;45.048;5.062;2022-11-24T08:44:09;99889.09;;;4.33;100.00
57376;BME280;44805;45.048;5.062;2022-11-24T08:46:52;99898.78;;;4.44;100.00
57376;BME280;44805;45.048;5.062;2022-11-24T08:52:32;99974.13;;;5.11;100.00
57376;BME280;44805;45.048;5.062;2022-11-24T08:58:20;99899.47;;;4.84;100.00
57376;BME280;44805;45.048;5.062;2022-11-24T09:00:48;99945.59;;;5.20;100.00
57376;BME280;44805;45.048;5.062;2022-11-24T09:03:14;99899.97;;;4.89;100.00
57376;BME280;44805;45.048;5.062;2022-11-24T09:05:39;99955.63;;;5.14;100.00
57376;BME280;44805;45.048;5.062;2022-11-24T09:08:10;99916.69;;;4.74;100.00
57376;BME280;44805;45.048;5.062;2022-11-24T09:14:17;99915.91;;;4.97;100.00
57376;BME280;44805;45.048;5.062;2022-11-24T09:16:52;99909.44;;;4.90;100.00
57376;BME280;44805;45.048;5.062;2022-11-24T09:19:31;99952.97;;;4.90;100.00
57376;BME280;44805;45.048;5.062;2022-11-24T09:22:02;99889.16;;;4.70;100.00
57376;BME280;44805;45.048;5.062;2022-11-24T09:24:49;99931.47;;;4.99;100.00
57376;BME280;44805;45.048;5.062;2022-11-24T09:27:18;99915.84;;;4.86;100.00
57376;BME280;44805;45.048;5.062;2022-11-24T09:30:13;99882.09;;;4.46;100.00
57376;BME280;44805;45.048;5.062;2022-11-24T09:32:48;99934.41;;;4.94;100.00
57376;BME280;44805;45.048;5.062;2022-11-24T09:35:23;99939.16;;;5.00;100.00
57376;BME280;44805;45.048;5.062;2022-11-24T09:38:00;99905.94;;;5.15;100.00
57376;BME280;44805;45.048;5.062;2022-11-24T09:47:14;100026.03;;;5.76;100.00
57376;BME280;44805;45.048;5.062;2022-11-24T09:50:13;100015.38;;;5.79;100.00
57376;BME280;44805;45.048;5.062;2022-11-24T09:55:50;99913.88;;;5.62;100.00
57376;BME280;44805;45.048;5.062;2022-11-24T09:58:44;100022.53;;;6.37;100.00
57376;BME280;44805;45.048;5.062;2022-11-24T10:01:18;100028.91;;;6.21;100.00
57376;BME280;44805;45.048;5.062;2022-11-24T10:21:33;100002.34;;;6.61;100.00
57376;BME280;44805;45.048;5.062;2022-11-24T10:26:58;99954.19;;;6.41;100.00
57376;BME280;44805;45.048;5.062;2022-11-24T10:29:50;99945.75;;;6.60;100.00
57376;BME280;44805;45.048;5.062;2022-11-24T10:34:50;99856.81;;;6.26;100.00
57376;BME280;44805;45.048;5.062;2022-11-24T10:37:22;99859.66;;;6.35;100.00
57376;BME280;44805;45.048;5.062;2022-11-24T10:39:59;99982.41;;;7.28;100.00
57376;BME280;44805;45.048;5.062;2022-11-24T10:42:33;99896.03;;;6.83;100.00
57376;BME280;44805;45.048;5.062;2022-11-24T10:45:09;99969.91;;;7.09;100.00
57376;BME280;44805;45.048;5.062;2022-11-24T10:47:35;99850.13;;;6.00;100.00
57376;BME280;44805;45.048;5.062;2022-11-24T10:50:11;99934.53;;;6.36;100.00
57376;BME280;44805;45.048;5.062;2022-11-24T10:52:42;99843.72;;;6.15;100.00
57376;BME280;44805;45.048;5.062;2022-11-24T10:55:15;99917.34;;;6.67;100.00
57376;BME280;44805;45.048;5.062;2022-11-24T10:57:40;99905.94;;;6.57;100.00
57376;BME280;44805;45.048;5.062;2022-11-24T11:00:30;99871.53;;;6.61;100.00
57376;BME280;44805;45.048;5.062;2022-11-24T11:03:15;99837.19;;;6.43;100.00
57376;BME280;44805;45.048;5.062;2022-11-24T11:05:52;99812.72;;;6.33;100.00
57376;BME280;44805;45.048;5.062;2022-11-24T11:08:22;99919.28;;;7.20;100.00
57376;BME280;44805;45.048;5.062;2022-11-24T11:10:49;99910.81;;;7.27;100.00
57376;BME280;44805;45.048;5.062;2022-11-24T11:13:22;99900.03;;;7.21;100.00
57376;BME280;44805;45.048;5.062;2022-11-24T11:15:48;99847.22;;;7.04;100.00
57376;BME280;44805;45.048;5.062;2022-11-24T11:18:16;99770.44;;;6.83;100.00
57376;BME280;44805;45.048;5.062;2022-11-24T11:20:53;99753.03;;;6.93;100.00
57376;BME280;44805;45.048;5.062;2022-11-24T11:23:27;99738.69;;;7.08;100.00
57376;BME280;44805;45.048;5.062;2022-11-24T11:31:31;99804.50;;;7.78;100.00
57376;BME280;44805;45.048;5.062;2022-11-24T11:36:30;99713.28;;;7.41;100.00
57376;BME280;44805;45.048;5.062;2022-11-24T11:38:57;99719.03;;;7.56;100.00
57376;BME280;44805;45.048;5.062;2022-11-24T11:41:31;99755.66;;;7.77;100.00
57376;BME280;44805;45.048;5.062;2022-11-24T11:47:40;99721.47;;;8.09;100.00
57376;BME280;44805;45.048;5.062;2022-11-24T11:50:16;99765.88;;;8.41;100.00
57376;BME280;44805;45.048;5.062;2022-11-24T12:01:49;99834.25;;;8.90;100.00
57376;BME280;44805;45.048;5.062;2022-11-24T12:15:21;99782.13;;;9.44;94.01
57376;BME280;44805;45.048;5.062;2022-11-24T12:23:56;99787.25;;;9.35;94.02
57376;BME280;44805;45.048;5.062;2022-11-24T12:34:29;99751.66;;;9.70;90.40
57376;BME280;44805;45.048;5.062;2022-11-24T12:42:49;99614.84;;;8.58;92.73
57376;BME280;44805;45.048;5.062;2022-11-24T12:45:32;99710.44;;;9.04;89.70
57376;BME280;44805;45.048;5.062;2022-11-24T12:50:34;99638.88;;;8.73;87.76
57376;BME280;44805;45.048;5.062;2022-11-24T12:53:11;99696.28;;;9.25;88.12
57376;BME280;44805;45.048;5.062;2022-11-24T12:56:05;99705.28;;;9.32;88.10
57376;BME280;44805;45.048;5.062;2022-11-24T12:58:42;99670.03;;;9.25;86.11
57376;BME280;44805;45.048;5.062;2022-11-24T13:01:51;99619.91;;;8.99;86.76
57376;BME280;44805;45.048;5.062;2022-11-24T13:04:44;99634.22;;;9.24;81.77
57376;BME280;44805;45.048;5.062;2022-11-24T13:07:15;99602.72;;;9.14;78.60
57376;BME280;44805;45.048;5.062;2022-11-24T13:13:09;99678.13;;;9.88;79.84
57376;BME280;44805;45.048;5.062;2022-11-24T13:21:33;99700.59;;;10.10;78.64
57376;BME280;44805;45.048;5.062;2022-11-24T13:26:47;99614.53;;;9.75;77.94
57376;BME280;44805;45.048;5.062;2022-11-24T13:42:17;99594.28;;;10.31;75.34
57376;BME280;44805;45.048;5.062;2022-11-24T13:44:51;99523.09;;;9.87;74.66
57376;BME280;44805;45.048;5.062;2022-11-24T13:47:39;99649.16;;;10.61;73.15
57376;BME280;44805;45.048;5.062;2022-11-24T13:56:02;99484.94;;;9.83;72.67
57376;BME280;44805;45.048;5.062;2022-11-24T14:01:12;99601.03;;;10.51;75.61
57376;BME280;44805;45.048;5.062;2022-11-24T14:41:22;99563.84;;;9.83;80.36
57376;BME280;44805;45.048;5.062;2022-11-24T14:44:09;99609.91;;;10.05;80.97
57376;BME280;44805;45.048;5.062;2022-11-24T14:46:37;99503.59;;;9.16;82.93
57376;BME280;44805;45.048;5.062;2022-11-24T14:49:02;99550.63;;;9.47;82.97
57376;BME280;44805;45.048;5.062;2022-11-24T14:51:36;99632.81;;;9.94;85.49
57376;BME280;44805;45.048;5.062;2022-11-24T14:54:16;99525.09;;;9.29;86.88
57376;BME280;44805;45.048;5.062;2022-11-24T14:57:23;99549.41;;;9.59;89.11
57376;BME280;44805;45.048;5.062;2022-11-24T15:00:24;99638.59;;;10.26;90.62
57376;BME280;44805;45.048;5.062;2022-11-24T15:03:08;99511.75;;;9.41;92.97
57376;BME280;44805;45.048;5.062;2022-11-24T15:05:57;99534.38;;;9.51;94.23
57376;BME280;44805;45.048;5.062;2022-11-24T15:15:15;99534.56;;;8.75;98.63
57376;BME280;44805;45.048;5.062;2022-11-24T15:17:56;99589.00;;;9.20;99.37
57376;BME280;44805;45.048;5.062;2022-11-24T15:20:31;99659.66;;;9.70;100.00
57376;BME280;44805;45.048;5.062;2022-11-24T15:23:21;99660.63;;;9.69;99.70
57376;BME280;44805;45.048;5.062;2022-11-24T15:29:08;99587.47;;;8.80;100.00
57376;BME280;44805;45.048;5.062;2022-11-24T15:34:05;99627.78;;;8.79;100.00
57376;BME280;44805;45.048;5.062;2022-11-24T15:36:31;99547.44;;;8.39;100.00
57376;BME280;44805;45.048;5.062;2022-11-24T15:38:57;99680.00;;;9.21;100.00
57376;BME280;44805;45.048;5.062;2022-11-24T15:44:41;99619.66;;;8.53;100.00
57376;BME280;44805;45.048;5.062;2022-11-24T15:47:30;99556.53;;;7.96;100.00
57376;BME280;44805;45.048;5.062;2022-11-24T15:49:55;99563.84;;;8.02;100.00
57376;BME280;44805;45.048;5.062;2022-11-24T15:52:21;99617.41;;;8.29;100.00
57376;BME280;44805;45.048;5.062;2022-11-24T15:54:54;99532.06;;;7.67;100.00
57376;BME280;44805;45.048;5.062;2022-11-24T16:16:02;99593.38;;;7.54;100.00
57376;BME280;44805;45.048;5.062;2022-11-24T16:18:28;99599.84;;;7.50;100.00
57376;BME280;44805;45.048;5.062;2022-11-24T16:21:04;99625.69;;;7.65;100.00
57376;BME280;44805;45.048;5.062;2022-11-24T16:23:45;99566.34;;;7.13;100.00
57376;BME280;44805;45.048;5.062;2022-11-24T16:26:16;99624.66;;;7.46;100.00
57376;BME280;44805;45.048;5.062;2022-11-24T16:28:44;99603.78;;;7.35;100.00
57376;BME280;44805;45.048;5.062;2022-11-24T16:31:23;99701.94;;;7.92;100.00
57376;BME280;44805;45.048;5.062;2022-11-24T16:33:51;99660.28;;;7.58;100.00
57376;BME280;44805;45.048;5.062;2022-11-24T16:36:20;99556.41;;;6.86;100.00
57376;BME280;44805;45.048;5.062;2022-11-24T16:38:51;99565.47;;;7.03;100.00
57376;BME280;44805;45.048;5.062;2022-11-24T16:41:21;99607.31;;;7.24;100.00
57376;BME280;44805;45.048;5.062;2022-11-24T16:43:49;99576.75;;;7.04;100.00
57376;BME280;44805;45.048;5.062;2022-11-24T16:46:26;99711.97;;;7.87;100.00
57376;BME280;44805;45.048;5.062;2022-11-24T16:48:57;99645.59;;;7.46;100.00
57376;BME280;44805;45.048;5.062;2022-11-24T16:51:27;99627.94;;;7.38;100.00
57376;BME280;44805;45.048;5.062;2022-11-24T16:53:58;99623.19;;;7.32;100.00
57376;BME280;44805;45.048;5.062;2022-11-24T16:56:27;99616.31;;;7.31;100.00
57376;BME280;44805;45.048;5.062;2022-11-24T16:58:59;99699.16;;;7.84;100.00
57376;BME280;44805;45.048;5.062;2022-11-24T17:01:29;99538.22;;;6.85;100.00
57376;BME280;44805;45.048;5.062;2022-11-24T17:03:55;99615.09;;;7.35;100.00
57376;BME280;44805;45.048;5.062;2022-11-24T17:06:26;99539.06;;;6.85;100.00
57376;BME280;44805;45.048;5.062;2022-11-24T17:08:58;99627.31;;;7.56;100.00
57376;BME280;44805;45.048;5.062;2022-11-24T17:11:25;99543.59;;;7.14;100.00
57376;BME280;44805;45.048;5.062;2022-11-24T17:13:58;99592.94;;;7.49;100.00
57376;BME280;44805;45.048;5.062;2022-11-24T17:16:27;99547.63;;;7.18;100.00
57376;BME280;44805;45.048;5.062;2022-11-24T17:18:53;99536.16;;;7.19;100.00
57376;BME280;44805;45.048;5.062;2022-11-24T17:21:23;99674.22;;;7.99;100.00
57376;BME280;44805;45.048;5.062;2022-11-24T17:24:00;99618.56;;;7.76;100.00
57376;BME280;44805;45.048;5.062;2022-11-24T17:26:32;99655.28;;;7.96;100.00
57376;BME280;44805;45.048;5.062;2022-11-24T17:28:58;99537.47;;;7.34;100.00
57376;BME280;44805;45.048;5.062;2022-11-24T17:33:52;99577.38;;;7.57;100.00
57376;BME280;44805;45.048;5.062;2022-11-24T17:36:18;99598.63;;;7.54;100.00
57376;BME280;44805;45.048;5.062;2022-11-24T17:38:43;99525.66;;;7.09;100.00
57376;BME280;44805;45.048;5.062;2022-11-24T17:41:09;99590.06;;;7.52;100.00
57376;BME280;44805;45.048;5.062;2022-11-24T17:43:35;99588.13;;;7.54;100.00
57376;BME280;44805;45.048;5.062;2022-11-24T17:46:02;99536.16;;;7.19;100.00
57376;BME280;44805;45.048;5.062;2022-11-24T17:48:28;99549.97;;;7.21;100.00
57376;BME280;44805;45.048;5.062;2022-11-24T17:51:06;99675.44;;;7.95;100.00
57376;BME280;44805;45.048;5.062;2022-11-24T17:53:37;99588.91;;;7.45;100.00
57376;BME280;44805;45.048;5.062;2022-11-24T17:56:07;99596.97;;;7.53;100.00
57376;BME280;44805;45.048;5.062;2022-11-24T17:58:38;99535.31;;;7.09;100.00
57376;BME280;44805;45.048;5.062;2022-11-24T18:01:07;99607.88;;;7.58;100.00
57376;BME280;44805;45.048;5.062;2022-11-24T18:03:32;99525.41;;;7.12;100.00
57376;BME280;44805;45.048;5.062;2022-11-24T18:06:06;99595.34;;;7.62;100.00
57376;BME280;44805;45.048;5.062;2022-11-24T18:08:33;99568.22;;;7.42;100.00
57376;BME280;44805;45.048;5.062;2022-11-24T18:11:27;99642.84;;;7.88;100.00
57376;BME280;44805;45.048;5.062;2022-11-24T18:13:55;99512.13;;;7.04;100.00
57376;BME280;44805;45.048;5.062;2022-11-24T18:16:21;99500.28;;;7.00;100.00
57376;BME280;44805;45.048;5.062;2022-11-24T22:15:59;99655.50;;;6.15;100.00
57376;BME280;44805;45.048;5.062;2022-11-24T22:18:29;99657.75;;;6.31;100.00
57376;BME280;44805;45.048;5.062;2022-11-24T22:20:54;99803.84;;;7.23;100.00
57376;BME280;44805;45.048;5.062;2022-11-24T22:23:20;99662.38;;;6.39;100.00
57376;BME280;44805;45.048;5.062;2022-11-24T22:25:46;99730.22;;;6.84;100.00
57376;BME280;44805;45.048;5.062;2022-11-24T22:32:01;99832.84;;;7.31;100.00
57376;BME280;44805;45.048;5.062;2022-11-24T22:34:28;99762.53;;;6.94;100.00
57376;BME280;44805;45.048;5.062;2022-11-24T22:36:53;99758.84;;;6.96;100.00
57376;BME280;44805;45.048;5.062;2022-11-24T22:39:18;99759.88;;;7.05;100.00
57376;BME280;44805;45.048;5.062;2022-11-24T22:42:06;99836.47;;;7.51;100.00
57376;BME280;44805;45.048;5.062;2022-11-24T22:44:31;99754.22;;;6.89;100.00